createdAt,value
2023-05-24T00:02:30.716Z,83.02
2023-05-24T00:05:33.844Z,83.56
2023-05-24T00:08:36.555Z,83.34
2023-05-24T00:11:39.251Z,83.95
2023-05-24T00:14:42.088Z,83.57
2023-05-24T00:17:44.882Z,83.73
2023-05-24T00:20:47.994Z,84.54
2023-05-24T00:23:52.146Z,84.98
2023-05-24T00:26:54.907Z,85.99
2023-05-24T00:29:57.819Z,87.02
2023-05-24T00:33:00.653Z,87.33
2023-05-24T00:36:03.535Z,87.62
2023-05-24T00:39:06.684Z,88.42
2023-05-24T00:42:09.872Z,88.64
2023-05-24T00:45:13.010Z,89.40
2023-05-24T00:48:16.075Z,90.18
2023-05-24T00:51:19.165Z,90.76
2023-05-24T00:54:22.532Z,91.37
2023-05-24T00:57:27.556Z,91.57
2023-05-24T01:00:30.737Z,91.56
2023-05-24T01:03:34.102Z,91.95
2023-05-24T01:06:52.205Z,91.96
2023-05-24T01:09:54.880Z,92.13
2023-05-24T01:13:20.956Z,91.76
2023-05-24T01:16:28.820Z,91.71
2023-05-24T01:19:49.116Z,91.41
2023-05-24T01:23:20.049Z,91.89
2023-05-24T01:26:40.351Z,91.47
2023-05-24T01:29:43.178Z,91.45
2023-05-24T01:32:46.434Z,90.75
2023-05-24T01:35:49.448Z,91.08
2023-05-24T01:38:52.843Z,91.26
2023-05-24T01:42:17.443Z,90.50
2023-05-24T01:45:35.884Z,90.59
2023-05-24T01:49:09.500Z,89.91
2023-05-24T01:52:15.373Z,89.57
2023-05-24T01:55:18.866Z,89.33
2023-05-24T01:58:23.758Z,89.70
2023-05-24T02:01:27.683Z,89.61
2023-05-24T02:04:30.991Z,89.50
2023-05-24T02:07:33.844Z,89.64
2023-05-24T02:10:39.824Z,89.69
2023-05-24T02:13:42.626Z,90.39
2023-05-24T02:16:46.977Z,90.00
2023-05-24T02:19:49.963Z,89.75
2023-05-24T02:22:52.915Z,89.62
2023-05-24T02:25:56.750Z,89.57
2023-05-24T02:28:59.633Z,89.28
2023-05-24T02:32:02.523Z,89.13
2023-05-24T02:35:06.196Z,89.52
2023-05-24T02:38:09.923Z,89.32
2023-05-24T02:41:17.984Z,89.38
2023-05-24T02:44:20.754Z,89.26
2023-05-24T02:47:23.614Z,89.54
2023-05-24T02:50:26.431Z,89.59
2023-05-24T02:53:30.197Z,89.91
2023-05-24T02:56:33.311Z,89.80
2023-05-24T02:59:36.617Z,89.62
2023-05-24T03:02:41.354Z,89.62
2023-05-24T03:05:44.349Z,90.08
2023-05-24T03:08:49.502Z,90.13
2023-05-24T03:11:54.654Z,89.55
2023-05-24T03:14:57.863Z,89.17
2023-05-24T03:18:01.083Z,89.12
2023-05-24T03:21:04.186Z,89.00
2023-05-24T03:24:07.267Z,88.56
2023-05-24T03:27:10.907Z,88.67
2023-05-24T03:30:13.908Z,88.70
2023-05-24T03:33:27.613Z,88.66
2023-05-24T03:36:31.220Z,88.73
2023-05-24T03:39:34.046Z,88.78
2023-05-24T03:42:51.050Z,88.82
2023-05-24T03:45:55.718Z,88.20
2023-05-24T03:48:58.566Z,88.27
2023-05-24T03:52:01.572Z,88.22
2023-05-24T03:55:04.727Z,88.50
2023-05-24T03:58:07.538Z,88.37
2023-05-24T04:01:22.030Z,88.46
2023-05-24T04:04:32.774Z,88.13
2023-05-24T04:07:37.110Z,87.30
2023-05-24T04:10:40.075Z,87.37
2023-05-24T04:13:46.005Z,87.14
2023-05-24T04:16:48.951Z,86.67
2023-05-24T04:19:52.111Z,87.16
2023-05-24T04:22:56.519Z,86.78
2023-05-24T04:25:59.651Z,85.90
2023-05-24T04:29:02.495Z,85.93
2023-05-24T04:32:06.422Z,85.91
2023-05-24T04:35:09.765Z,85.51
2023-05-24T04:38:12.944Z,85.62
2023-05-24T04:41:15.827Z,85.18
2023-05-24T04:44:18.897Z,84.95
2023-05-24T04:47:21.729Z,85.04
2023-05-24T04:50:24.565Z,85.16
2023-05-24T04:53:27.477Z,85.53
2023-05-24T04:56:30.332Z,85.45
2023-05-24T04:59:33.162Z,84.76
2023-05-24T05:02:36.192Z,84.40
2023-05-24T05:05:39.078Z,84.74
2023-05-24T05:08:41.945Z,84.65
2023-05-24T05:11:46.887Z,84.61
2023-05-24T05:14:50.808Z,84.38
2023-05-24T05:17:53.605Z,83.50
2023-05-24T05:20:56.399Z,83.87
2023-05-24T05:24:00.259Z,83.59
2023-05-24T05:27:03.091Z,83.74
2023-05-24T05:30:06.609Z,83.91
2023-05-24T05:33:12.144Z,83.85
2023-05-24T05:36:15.605Z,83.01
2023-05-24T05:39:18.399Z,83.08
2023-05-24T05:42:21.236Z,81.54
2023-05-24T05:45:24.755Z,81.41
2023-05-24T05:48:27.669Z,80.89
2023-05-24T05:51:30.722Z,80.47
2023-05-24T05:54:36.531Z,80.52
2023-05-24T05:57:39.362Z,80.48
2023-05-24T06:00:42.626Z,81.24
2023-05-24T06:03:45.962Z,81.37
2023-05-24T06:06:50.073Z,79.91
2023-05-24T06:10:07.526Z,79.96
2023-05-24T06:13:40.417Z,80.92
2023-05-24T06:16:49.389Z,79.02
2023-05-24T06:19:55.450Z,77.84
2023-05-24T06:23:01.641Z,77.79
2023-05-24T06:26:05.120Z,77.37
2023-05-24T06:29:08.588Z,78.01
2023-05-24T06:32:11.963Z,76.49
2023-05-24T06:35:14.993Z,76.59
2023-05-24T06:38:19.644Z,76.07
2023-05-24T06:41:23.069Z,74.61
2023-05-24T06:44:33.823Z,73.23
2023-05-24T06:47:37.397Z,72.27
2023-05-24T06:50:42.572Z,71.68
2023-05-24T06:53:45.842Z,72.38
2023-05-24T06:56:48.754Z,74.19
2023-05-24T06:59:52.621Z,72.99
2023-05-24T07:03:01.609Z,71.92
2023-05-24T07:06:05.363Z,70.39
2023-05-24T07:09:10.610Z,70.32
2023-05-24T07:12:13.740Z,70.58
2023-05-24T07:15:19.157Z,68.71
2023-05-24T07:18:22.073Z,71.82
2023-05-24T07:21:24.931Z,71.25
2023-05-24T07:24:28.017Z,70.13
2023-05-24T07:27:30.892Z,67.79
2023-05-24T07:30:34.329Z,65.31
2023-05-24T07:33:40.686Z,65.31
2023-05-24T07:36:43.549Z,64.99
2023-05-24T07:39:46.500Z,66.03
2023-05-24T07:42:49.389Z,66.56
2023-05-24T07:45:52.241Z,66.99
2023-05-24T07:48:57.648Z,66.98
2023-05-24T07:52:00.673Z,68.23
2023-05-24T07:55:04.188Z,66.65
2023-05-24T07:58:07.114Z,68.26
2023-05-24T08:01:11.315Z,67.19
2023-05-24T08:04:14.450Z,65.59
2023-05-24T08:07:18.211Z,65.54
2023-05-24T08:10:22.222Z,65.87
2023-05-24T08:13:26.884Z,65.56
2023-05-24T08:16:30.045Z,64.07
2023-05-24T08:19:36.118Z,64.59
2023-05-24T08:22:39.313Z,62.54
2023-05-24T08:25:42.832Z,66.13
2023-05-24T08:28:46.149Z,62.68
2023-05-24T08:31:49.219Z,59.70
2023-05-24T08:34:57.949Z,59.73
2023-05-24T08:38:07.102Z,60.29
2023-05-24T08:41:12.007Z,58.89
2023-05-24T08:44:17.734Z,60.08
2023-05-24T08:47:22.433Z,61.10
2023-05-24T08:50:26.392Z,60.48
2023-05-24T08:54:14.184Z,61.08
2023-05-24T08:57:21.684Z,60.69
2023-05-24T09:00:25.204Z,58.18
2023-05-24T09:03:28.501Z,59.25
2023-05-24T09:06:32.843Z,58.13
2023-05-24T09:09:37.991Z,58.86
2023-05-24T09:12:49.140Z,57.99
2023-05-24T09:15:52.498Z,56.92
2023-05-24T09:18:55.570Z,57.28
2023-05-24T09:21:59.912Z,54.95
2023-05-24T09:25:06.737Z,53.14
2023-05-24T09:28:09.728Z,53.32
2023-05-24T09:31:14.008Z,52.15
2023-05-24T09:34:17.051Z,51.63
2023-05-24T09:37:27.604Z,51.81
2023-05-24T09:40:31.888Z,50.97
2023-05-24T09:43:46.854Z,51.23
2023-05-24T09:46:49.680Z,44.28
2023-05-24T09:49:58.357Z,44.16
2023-05-24T09:53:35.426Z,43.75
2023-05-24T09:56:43.347Z,44.70
2023-05-24T09:59:47.196Z,42.22
2023-05-24T10:03:04.081Z,40.72
2023-05-24T10:06:19.078Z,38.21
2023-05-24T10:09:26.558Z,38.61
2023-05-24T10:12:31.312Z,37.79
2023-05-24T10:15:34.142Z,37.54
2023-05-24T10:18:37.036Z,36.39
2023-05-24T10:21:43.336Z,37.09
2023-05-24T10:24:48.605Z,39.77
2023-05-24T10:27:54.746Z,40.22
2023-05-24T10:31:03.508Z,37.19
2023-05-24T10:34:08.847Z,37.71
2023-05-24T10:37:12.333Z,38.72
2023-05-24T10:40:25.522Z,37.52
2023-05-24T10:43:28.727Z,35.06
2023-05-24T10:46:33.236Z,32.21
2023-05-24T10:49:37.438Z,31.07
2023-05-24T10:52:40.319Z,32.27
2023-05-24T10:55:55.224Z,30.17
2023-05-24T10:58:59.896Z,30.05
2023-05-24T11:02:35.822Z,28.55
2023-05-24T11:06:17.164Z,28.56
2023-05-24T11:09:23.014Z,27.70
2023-05-24T11:12:34.767Z,27.61
2023-05-24T11:15:39.940Z,27.04
2023-05-24T11:18:55.904Z,25.86
2023-05-24T11:21:59.961Z,28.76
2023-05-24T11:25:06.305Z,27.08
2023-05-24T11:28:12.635Z,26.56
2023-05-24T11:31:16.025Z,29.95
2023-05-24T11:34:19.933Z,28.40
2023-05-24T11:37:34.908Z,28.96
2023-05-24T11:40:47.758Z,26.94
2023-05-24T11:43:50.709Z,26.83
2023-05-24T11:47:01.111Z,26.97
2023-05-24T11:50:04.185Z,28.18
2023-05-24T11:53:11.123Z,27.82
2023-05-24T11:56:13.969Z,26.92
2023-05-24T11:59:28.332Z,26.24
2023-05-24T12:02:31.350Z,26.33
2023-05-24T12:05:34.787Z,25.08
2023-05-24T12:08:37.618Z,24.20
2023-05-24T12:11:42.357Z,25.85
2023-05-24T12:14:45.530Z,24.97
2023-05-24T12:17:52.348Z,25.22
2023-05-24T12:20:55.400Z,27.34
2023-05-24T12:23:58.462Z,27.60
2023-05-24T12:27:08.274Z,27.57
2023-05-24T12:30:18.956Z,26.37
2023-05-24T12:33:21.749Z,26.00
2023-05-24T12:36:24.574Z,28.31
2023-05-24T12:39:31.942Z,26.87
2023-05-24T12:42:36.781Z,25.17
2023-05-24T12:45:39.689Z,28.16
2023-05-24T12:48:42.497Z,27.33
2023-05-24T12:51:47.156Z,26.35
2023-05-24T12:54:51.828Z,26.93
2023-05-24T12:57:57.576Z,27.25
2023-05-24T13:01:00.467Z,27.08
2023-05-24T13:04:04.167Z,26.18
2023-05-24T13:07:06.951Z,25.56
2023-05-24T13:10:09.834Z,25.25
2023-05-24T13:13:12.689Z,26.06
2023-05-24T13:16:16.638Z,24.45
2023-05-24T13:19:19.490Z,26.94
2023-05-24T13:22:22.415Z,29.92
2023-05-24T13:25:26.790Z,31.27
2023-05-24T13:28:31.394Z,33.15
2023-05-24T13:31:34.407Z,33.43
2023-05-24T13:34:37.359Z,35.95
2023-05-24T13:37:41.197Z,35.21
2023-05-24T13:40:46.036Z,35.46
2023-05-24T13:43:49.155Z,34.85
2023-05-24T13:46:52.389Z,37.24
2023-05-24T13:49:56.565Z,35.89
2023-05-24T13:53:02.345Z,37.61
2023-05-24T13:56:07.461Z,37.72
2023-05-24T13:59:12.231Z,37.17
2023-05-24T14:02:15.227Z,36.52
2023-05-24T14:05:27.307Z,36.98
2023-05-24T14:08:30.984Z,36.90
2023-05-24T14:11:34.256Z,36.73
2023-05-24T14:14:59.378Z,37.12
2023-05-24T14:18:26.131Z,36.67
2023-05-24T14:21:32.593Z,37.04
2023-05-24T14:24:35.553Z,37.23
2023-05-24T14:27:38.712Z,39.10
2023-05-24T14:30:42.252Z,37.49
2023-05-24T14:33:45.019Z,37.73
2023-05-24T14:36:48.672Z,38.16
2023-05-24T14:39:51.543Z,36.58
2023-05-24T14:42:55.517Z,36.32
2023-05-24T14:45:58.370Z,37.32
2023-05-24T14:49:02.716Z,36.14
2023-05-24T14:52:05.947Z,35.83
2023-05-24T14:55:09.174Z,36.42
2023-05-24T14:58:12.602Z,35.90
2023-05-24T15:01:15.538Z,35.02
2023-05-24T15:04:19.000Z,36.49
2023-05-24T15:07:22.981Z,34.94
2023-05-24T15:10:25.779Z,36.77
2023-05-24T15:13:28.628Z,35.73
2023-05-24T15:16:31.709Z,37.72
2023-05-24T15:19:34.580Z,38.39
2023-05-24T15:22:37.382Z,38.42
2023-05-24T15:25:41.123Z,39.33
2023-05-24T15:28:43.878Z,38.56
2023-05-24T15:31:47.034Z,38.53
2023-05-24T15:34:50.869Z,39.85
2023-05-24T15:37:53.651Z,39.98
2023-05-24T15:40:56.636Z,39.50
2023-05-24T15:44:01.000Z,38.76
2023-05-24T15:47:04.217Z,39.01
2023-05-24T15:50:10.413Z,38.97
2023-05-24T15:53:13.329Z,39.51
2023-05-24T15:56:16.537Z,39.24
2023-05-24T15:59:21.552Z,40.07
2023-05-24T16:02:24.850Z,39.52
2023-05-24T16:05:28.475Z,39.72
2023-05-24T16:08:31.436Z,39.12
2023-05-24T16:11:34.481Z,40.58
2023-05-24T16:14:37.280Z,41.01
2023-05-24T16:17:40.074Z,40.77
2023-05-24T16:20:43.243Z,40.39
2023-05-24T16:23:49.421Z,40.64
2023-05-24T16:26:57.848Z,41.21
2023-05-24T16:30:00.590Z,41.37
2023-05-24T16:33:03.591Z,40.96
2023-05-24T16:36:06.735Z,41.35
2023-05-24T16:39:12.039Z,42.25
2023-05-24T16:42:14.937Z,41.34
2023-05-24T16:45:17.756Z,41.83
2023-05-24T16:48:21.868Z,41.52
2023-05-24T16:51:24.895Z,41.97
2023-05-24T16:54:27.650Z,41.84
2023-05-24T16:57:30.447Z,42.18
2023-05-24T17:00:33.234Z,43.03
2023-05-24T17:03:36.334Z,42.59
2023-05-24T17:06:39.209Z,43.08
2023-05-24T17:09:42.000Z,42.68
2023-05-24T17:12:44.789Z,43.63
2023-05-24T17:15:47.646Z,44.18
2023-05-24T17:18:51.122Z,44.65
2023-05-24T17:21:53.999Z,46.19
2023-05-24T17:24:56.759Z,45.46
2023-05-24T17:27:59.519Z,46.17
2023-05-24T17:31:02.905Z,46.75
2023-05-24T17:34:05.750Z,46.65
2023-05-24T17:37:08.557Z,47.32
2023-05-24T17:40:11.645Z,48.02
2023-05-24T17:43:14.450Z,48.52
2023-05-24T17:46:17.704Z,48.46
2023-05-24T17:49:20.501Z,48.87
2023-05-24T17:52:23.236Z,48.46
2023-05-24T17:55:27.094Z,48.75
2023-05-24T17:58:31.064Z,48.85
2023-05-24T18:01:33.999Z,50.09
2023-05-24T18:04:36.791Z,50.73
2023-05-24T18:07:39.621Z,52.10
2023-05-24T18:10:42.580Z,52.64
2023-05-24T18:13:45.348Z,52.90
2023-05-24T18:16:48.142Z,53.71
2023-05-24T18:19:51.416Z,54.57
2023-05-24T18:22:54.222Z,55.29
2023-05-24T18:26:00.440Z,55.67
2023-05-24T18:29:05.839Z,55.25
2023-05-24T18:32:08.656Z,56.02
2023-05-24T18:35:12.604Z,55.37
2023-05-24T18:38:15.469Z,55.65
2023-05-24T18:41:18.567Z,54.85
2023-05-24T18:44:21.618Z,56.09
2023-05-24T18:47:24.415Z,55.01
2023-05-24T18:50:27.236Z,55.78
2023-05-24T18:53:30.018Z,56.63
2023-05-24T18:56:32.883Z,56.48
2023-05-24T18:59:36.688Z,57.53
2023-05-24T19:02:39.768Z,57.56
2023-05-24T19:05:44.158Z,57.49
2023-05-24T19:08:47.481Z,57.79
2023-05-24T19:11:50.279Z,58.20
2023-05-24T19:14:53.081Z,58.18
2023-05-24T19:17:58.083Z,59.53
2023-05-24T19:21:01.018Z,59.84
2023-05-24T19:24:03.941Z,60.28
2023-05-24T19:27:07.252Z,60.71
2023-05-24T19:30:10.446Z,61.24
2023-05-24T19:33:13.324Z,61.62
2023-05-24T19:36:17.029Z,61.70
2023-05-24T19:39:19.888Z,62.21
2023-05-24T19:42:22.689Z,62.21
2023-05-24T19:45:25.777Z,62.80
2023-05-24T19:48:28.613Z,63.05
2023-05-24T19:51:31.501Z,63.22
2023-05-24T19:54:35.810Z,64.01
2023-05-24T19:57:38.607Z,64.67
2023-05-24T20:00:41.629Z,65.10
2023-05-24T20:03:48.593Z,65.55
2023-05-24T20:06:53.475Z,66.10
2023-05-24T20:09:56.261Z,66.49
2023-05-24T20:12:59.140Z,66.62
2023-05-24T20:16:01.998Z,67.82
2023-05-24T20:19:04.808Z,67.68
2023-05-24T20:22:07.578Z,67.96
2023-05-24T20:25:10.989Z,68.82
2023-05-24T20:28:28.750Z,68.99
2023-05-24T20:31:32.720Z,69.44
2023-05-24T20:34:35.971Z,69.75
2023-05-24T20:37:38.934Z,70.06
2023-05-24T20:40:42.088Z,70.26
2023-05-24T20:43:44.845Z,71.00
2023-05-24T20:46:47.739Z,71.28
2023-05-24T20:49:50.976Z,71.25
2023-05-24T20:52:53.790Z,71.54
2023-05-24T20:55:57.377Z,71.77
2023-05-24T20:59:00.365Z,72.05
2023-05-24T21:02:03.203Z,72.42
2023-05-24T21:05:06.818Z,72.54
2023-05-24T21:08:09.759Z,73.52
2023-05-24T21:11:12.838Z,73.47
2023-05-24T21:14:15.845Z,73.71
2023-05-24T21:17:18.915Z,74.35
2023-05-24T21:20:21.968Z,74.87
2023-05-24T21:23:25.374Z,75.05
2023-05-24T21:26:28.183Z,75.70
2023-05-24T21:29:31.088Z,75.86
2023-05-24T21:32:33.965Z,75.93
2023-05-24T21:35:37.439Z,76.63
2023-05-24T21:38:40.174Z,76.16
2023-05-24T21:41:43.065Z,76.86
2023-05-24T21:44:45.989Z,76.75
2023-05-24T21:47:48.866Z,76.97
2023-05-24T21:50:51.719Z,77.28
2023-05-24T21:53:54.534Z,77.39
2023-05-24T21:56:57.412Z,77.34
2023-05-24T22:00:00.172Z,77.62
2023-05-24T22:03:02.977Z,77.73
2023-05-24T22:06:05.950Z,77.80
2023-05-24T22:09:13.752Z,78.20
2023-05-24T22:12:16.603Z,78.39
2023-05-24T22:15:19.414Z,78.71
2023-05-24T22:18:22.195Z,78.66
2023-05-24T22:21:26.380Z,78.80
2023-05-24T22:24:29.102Z,78.53
2023-05-24T22:27:31.928Z,78.72
2023-05-24T22:30:36.050Z,77.67
2023-05-24T22:33:38.810Z,78.21
2023-05-24T22:36:41.668Z,77.97
2023-05-24T22:39:45.613Z,78.51
2023-05-24T22:42:48.391Z,79.36
2023-05-24T22:45:51.500Z,79.26
2023-05-24T22:48:56.822Z,79.65
2023-05-24T22:52:00.571Z,79.37
2023-05-24T22:55:03.511Z,79.92
2023-05-24T22:58:06.348Z,80.57
2023-05-24T23:01:09.187Z,80.60
2023-05-24T23:04:21.257Z,80.70
2023-05-24T23:07:25.252Z,81.06
2023-05-24T23:10:28.043Z,81.77
2023-05-24T23:13:36.188Z,82.30
2023-05-24T23:16:46.147Z,82.49
2023-05-24T23:19:50.564Z,83.04
2023-05-24T23:22:53.385Z,83.87
2023-05-24T23:25:56.440Z,83.51
2023-05-24T23:28:59.216Z,83.95
2023-05-24T23:32:02.163Z,84.14
2023-05-24T23:35:05.274Z,83.96
2023-05-24T23:38:08.054Z,83.54
2023-05-24T23:41:10.798Z,82.81
2023-05-24T23:44:13.665Z,83.41
2023-05-24T23:47:16.375Z,83.36
2023-05-24T23:50:22.580Z,83.54
2023-05-24T23:53:25.504Z,84.41
2023-05-24T23:56:28.247Z,84.26
2023-05-24T23:59:31.024Z,84.77
